Flight Track Log - Related Links

Times and Time Zones

All times are in EDT time to prevent confusion due to time zone crossing. See the FDX437 flight status page for this flight to view local times or setup timezone preferences in your user account.

Time Position Orientation Groundspeed Altitude Reporting Facility
EDT Latitude Longitude Course Direction KTS MPH feet Rate Location/Type
Fri 07:15:40 AM 41.4003 -81.8675 215° Southwest 142 163 2,000  Level Cleveland Center
Fri 07:16:09 AM 41.3772 -81.8892 215° Southwest 195 224 3,100 2,449 Climbing Cleveland Center
Fri 07:16:29 AM 41.3625 -81.9056 220° Southwest 237 273 4,000 3,500 Climbing Cleveland Center
Fri 07:17:09 AM 41.3222 -81.9433 215° Southwest 269 310 6,600 3,360 Climbing Cleveland Center
Fri 07:18:09 AM 41.2717 -81.9894 214° Southwest 275 316 9,600 2,200 Climbing Cleveland Center
Fri 07:19:09 AM 41.2003 -82.0458 211° Southwest 275 316 11,000 800 Climbing Cleveland Center
Fri 07:20:09 AM 41.1097 -82.1017 205° Southwest 310 357 11,200 500 Climbing Cleveland Center
Fri 07:21:09 AM 41.0175 -82.1489 201° Southwest 349 402 12,000 400 Climbing Cleveland Center
Fri 07:22:09 AM 40.9250 -82.1989 202° Southwest 356 410 12,000  Level Cleveland Center
Fri 07:23:09 AM 40.8283 -82.2489 201° Southwest 366 421 12,000 -100 Level Cleveland Center
Fri 07:24:09 AM 40.7403 -82.2903 200° South 354 407 11,800 -750 Descending Cleveland Center
Fri 07:25:49 AM 40.6025 -82.3581 200° South 316 364 10,000 -765 Descending Indianapolis Center
Fri 07:26:38 AM 40.5342 -82.3928 201° Southwest 309 356 9,900 -709 Descending Indianapolis Center
Fri 07:27:39 AM 40.4628 -82.4289 201° Southwest 273 314 8,700 -1,091 Descending Indianapolis Center
Fri 07:28:39 AM 40.3933 -82.4678 203° Southwest 276 318 7,700 -1,041 Descending Indianapolis Center
Fri 07:29:40 AM 40.3275 -82.5181 210° Southwest 271 312 6,600 -1,026 Descending Indianapolis Center
Fri 07:29:55 AM 40.3136 -82.5264 205° Southwest 273 314 6,400 -984 Descending Indianapolis Center
Fri 07:30:41 AM 40.2619 -82.5631 208° Southwest 268 308 5,600 -984 Descending Indianapolis Center
Fri 07:30:56 AM 40.2483 -82.5711 204° Southwest 263 303 5,400 -1,091 Descending Indianapolis Center
Fri 07:31:47 AM 40.1892 -82.6178 211° Southwest 262 302 4,400 -1,075 Descending Indianapolis Center
Fri 07:32:42 AM 40.1300 -82.6603 209° Southwest 262 302 3,500 -1,000 Descending Indianapolis Center
Fri 07:32:59 AM 40.1139 -82.6694 204° Southwest 262 302 3,200 -393 Descending Indianapolis Center
Fri 07:33:43 AM 40.0664 -82.7050 210° Southwest 260 299 3,100 -197 Descending Indianapolis Center
Fri 07:34:00 AM 40.0503 -82.7150 205° Southwest 260 299 3,000  Descending Indianapolis Center
Fri 07:34:43 AM 40.0047 -82.7500 210° Southwest 245 282 3,100  Climbing Indianapolis Center
Fri 07:35:02 AM 39.9889 -82.7586 203° Southwest 252 290 3,000 -316 Descending Indianapolis Center

Login

Don't have an account? Register now (free) for customized features, flight alerts, and more!